EGPA

Kirkwall Airport

Orkney Islands, United Kingdom
METAR EGPA 211320Z 28010KT 9999 FEW008 SCT015 17/12 Q1012
Observed Flight Rules
Jul-21 @ 13:20 UTC (34 minutes ago) Visual Flight Rules
Wind Visibility Clouds
280° at 10 knots 10,000+ meters
  • Few at 800' AGL
  • Scattered at 1,500' AGL
Temperatures Readings
Current 17°C / 63°F
Dewpoint 12°C / 54°F
Humidity 73%
Altimeter 29.88" Hg
Pressure 1012 hPa
Elevation 21
METAR EGPA 211320Z 28010KT 9999 FEW008 SCT015 17/12 Q1012
Observed Flight Rules
Jul-21 @ 13:20 UTC
(34 minutes ago)
VFR
Wind Visibility
280° at 10 knots 10,000+ meters
Clouds
  • Few at 800' AGL
  • Scattered at 1,500' AGL
Temperature Dewpoint
17°C / 63°F 12°C / 54°F
Humidity Altimeter Pressure
73% 29.88" Hg 1012 hPa